sensor_id;sensor_type;location;lat;lon;timestamp;pressure;altitude;pressure_sealevel;temperature;humidity
14882;BME280;7533;51.278;12.588;2022-09-29T00:02:18;98574.16;;;22.43;67.75
14882;BME280;7533;51.278;12.588;2022-09-29T00:07:20;98571.63;;;22.42;67.75
14882;BME280;7533;51.278;12.588;2022-09-29T00:12:23;98579.03;;;22.40;68.02
14882;BME280;7533;51.278;12.588;2022-09-29T00:17:27;98573.94;;;22.37;68.01
14882;BME280;7533;51.278;12.588;2022-09-29T00:22:30;98576.97;;;22.34;68.27
14882;BME280;7533;51.278;12.588;2022-09-29T00:27:33;98587.03;;;22.32;68.16
14882;BME280;7533;51.278;12.588;2022-09-29T00:32:37;98583.81;;;22.28;68.42
14882;BME280;7533;51.278;12.588;2022-09-29T00:37:40;98583.94;;;22.27;68.31
14882;BME280;7533;51.278;12.588;2022-09-29T00:42:42;98591.50;;;22.23;68.35
14882;BME280;7533;51.278;12.588;2022-09-29T00:47:52;98589.94;;;22.21;68.55
14882;BME280;7533;51.278;12.588;2022-09-29T00:53:01;98603.72;;;22.17;68.60
14882;BME280;7533;51.278;12.588;2022-09-29T00:58:12;98599.31;;;22.16;68.68
14882;BME280;7533;51.278;12.588;2022-09-29T01:03:21;98593.41;;;22.13;68.76
14882;BME280;7533;51.278;12.588;2022-09-29T01:08:31;98589.28;;;22.09;68.86
14882;BME280;7533;51.278;12.588;2022-09-29T01:13:37;98597.53;;;22.07;69.03
14882;BME280;7533;51.278;12.588;2022-09-29T01:18:41;98593.25;;;22.05;69.15
14882;BME280;7533;51.278;12.588;2022-09-29T01:29:31;98604.66;;;21.99;68.99
14882;BME280;7533;51.278;12.588;2022-09-29T01:34:44;98603.13;;;21.96;69.23
14882;BME280;7533;51.278;12.588;2022-09-29T01:39:57;98608.66;;;21.95;69.41
14882;BME280;7533;51.278;12.588;2022-09-29T01:45:11;98617.03;;;21.91;69.64
14882;BME280;7533;51.278;12.588;2022-09-29T01:50:22;98610.97;;;21.89;69.43
14882;BME280;7533;51.278;12.588;2022-09-29T01:55:30;98609.38;;;21.87;69.66
14882;BME280;7533;51.278;12.588;2022-09-29T02:00:38;98607.69;;;21.86;69.73
14882;BME280;7533;51.278;12.588;2022-09-29T02:05:46;98609.84;;;21.82;69.68
14882;BME280;7533;51.278;12.588;2022-09-29T02:10:55;98612.69;;;21.81;69.66
14882;BME280;7533;51.278;12.588;2022-09-29T02:16:01;98613.84;;;21.78;69.86
14882;BME280;7533;51.278;12.588;2022-09-29T02:21:06;98613.13;;;21.76;69.82
14882;BME280;7533;51.278;12.588;2022-09-29T02:26:11;98615.13;;;21.74;69.91
14882;BME280;7533;51.278;12.588;2022-09-29T02:31:14;98615.28;;;21.73;70.04
14882;BME280;7533;51.278;12.588;2022-09-29T02:36:25;98618.09;;;21.71;70.02
14882;BME280;7533;51.278;12.588;2022-09-29T02:41:45;98627.34;;;21.69;70.18
14882;BME280;7533;51.278;12.588;2022-09-29T02:47:16;98629.34;;;21.67;70.42
14882;BME280;7533;51.278;12.588;2022-09-29T02:52:28;98630.31;;;21.65;70.47
14882;BME280;7533;51.278;12.588;2022-09-29T02:57:40;98629.63;;;21.63;70.60
14882;BME280;7533;51.278;12.588;2022-09-29T03:02:47;98629.91;;;21.60;70.49
14882;BME280;7533;51.278;12.588;2022-09-29T03:07:51;98634.44;;;21.60;70.45
14882;BME280;7533;51.278;12.588;2022-09-29T03:12:53;98625.69;;;21.58;70.53
14882;BME280;7533;51.278;12.588;2022-09-29T03:17:56;98630.38;;;21.56;70.75
14882;BME280;7533;51.278;12.588;2022-09-29T03:23:00;98630.50;;;21.54;70.81
14882;BME280;7533;51.278;12.588;2022-09-29T03:28:03;98635.19;;;21.52;70.73
14882;BME280;7533;51.278;12.588;2022-09-29T03:33:05;98647.13;;;21.50;70.95
14882;BME280;7533;51.278;12.588;2022-09-29T03:38:09;98646.41;;;21.48;70.75
14882;BME280;7533;51.278;12.588;2022-09-29T03:43:12;98645.53;;;21.47;71.10
14882;BME280;7533;51.278;12.588;2022-09-29T03:48:15;98652.94;;;21.45;70.92
14882;BME280;7533;51.278;12.588;2022-09-29T03:53:23;98658.44;;;21.44;71.03
14882;BME280;7533;51.278;12.588;2022-09-29T03:58:26;98659.44;;;21.43;71.21
14882;BME280;7533;51.278;12.588;2022-09-29T04:03:29;98655.06;;;21.42;71.20
14882;BME280;7533;51.278;12.588;2022-09-29T04:08:34;98661.59;;;21.39;71.20
14882;BME280;7533;51.278;12.588;2022-09-29T04:13:37;98666.97;;;21.39;71.34
14882;BME280;7533;51.278;12.588;2022-09-29T04:18:39;98676.00;;;21.38;71.43
14882;BME280;7533;51.278;12.588;2022-09-29T04:23:43;98674.31;;;21.37;71.26
14882;BME280;7533;51.278;12.588;2022-09-29T04:28:46;98675.31;;;21.36;71.39
14882;BME280;7533;51.278;12.588;2022-09-29T04:33:49;98675.47;;;21.34;71.29
14882;BME280;7533;51.278;12.588;2022-09-29T04:38:53;98688.09;;;21.34;71.39
14882;BME280;7533;51.278;12.588;2022-09-29T04:43:56;98686.38;;;21.33;71.52
14882;BME280;7533;51.278;12.588;2022-09-29T04:48:59;98684.66;;;21.32;71.53
14882;BME280;7533;51.278;12.588;2022-09-29T04:54:03;98681.28;;;21.30;71.55
14882;BME280;7533;51.278;12.588;2022-09-29T04:59:06;98677.75;;;21.29;71.48
14882;BME280;7533;51.278;12.588;2022-09-29T05:04:08;98683.25;;;21.28;71.64
14882;BME280;7533;51.278;12.588;2022-09-29T05:09:15;98680.56;;;21.28;71.68
14882;BME280;7533;51.278;12.588;2022-09-29T05:14:17;98686.06;;;21.26;71.63
14882;BME280;7533;51.278;12.588;2022-09-29T05:19:20;98693.28;;;21.26;71.68
14882;BME280;7533;51.278;12.588;2022-09-29T05:24:24;98698.81;;;21.24;71.85
14882;BME280;7533;51.278;12.588;2022-09-29T05:29:27;98704.34;;;21.23;71.86
14882;BME280;7533;51.278;12.588;2022-09-29T05:34:29;98704.34;;;21.23;71.75
14882;BME280;7533;51.278;12.588;2022-09-29T05:39:33;98700.94;;;21.21;71.70
14882;BME280;7533;51.278;12.588;2022-09-29T05:44:37;98699.25;;;21.20;71.50
14882;BME280;7533;51.278;12.588;2022-09-29T05:49:40;98712.53;;;21.21;71.82
14882;BME280;7533;51.278;12.588;2022-09-29T05:54:44;98704.63;;;21.20;71.81
14882;BME280;7533;51.278;12.588;2022-09-29T05:59:51;98715.38;;;21.20;72.03
14882;BME280;7533;51.278;12.588;2022-09-29T06:04:54;98717.22;;;21.19;72.02
14882;BME280;7533;51.278;12.588;2022-09-29T06:09:58;98713.69;;;21.19;72.05
14882;BME280;7533;51.278;12.588;2022-09-29T06:15:01;98719.06;;;21.19;72.01
14882;BME280;7533;51.278;12.588;2022-09-29T06:20:05;98714.53;;;21.19;72.03
14882;BME280;7533;51.278;12.588;2022-09-29T06:25:10;98720.91;;;21.18;72.16
14882;BME280;7533;51.278;12.588;2022-09-29T06:30:13;98713.84;;;21.17;72.39
14882;BME280;7533;51.278;12.588;2022-09-29T06:35:16;98710.16;;;21.18;72.09
14882;BME280;7533;51.278;12.588;2022-09-29T06:40:38;98709.16;;;21.19;72.18
14882;BME280;7533;51.278;12.588;2022-09-29T06:45:40;98717.22;;;21.19;72.26
14882;BME280;7533;51.278;12.588;2022-09-29T06:50:43;98726.28;;;21.18;72.18
14882;BME280;7533;51.278;12.588;2022-09-29T06:55:52;98726.44;;;21.17;71.88
14882;BME280;7533;51.278;12.588;2022-09-29T07:00:58;98732.78;;;21.16;71.23
14882;BME280;7533;51.278;12.588;2022-09-29T07:06:02;98731.94;;;21.15;70.12
14882;BME280;7533;51.278;12.588;2022-09-29T07:11:22;98729.25;;;21.15;69.71
14882;BME280;7533;51.278;12.588;2022-09-29T07:16:25;98725.72;;;21.14;69.23
14882;BME280;7533;51.278;12.588;2022-09-29T07:21:28;98724.72;;;21.16;69.96
14882;BME280;7533;51.278;12.588;2022-09-29T07:26:32;98728.41;;;21.14;69.56
14882;BME280;7533;51.278;12.588;2022-09-29T07:31:34;98731.81;;;20.97;60.39
14882;BME280;7533;51.278;12.588;2022-09-29T07:36:51;98733.88;;;20.15;56.33
14882;BME280;7533;51.278;12.588;2022-09-29T07:41:55;98737.34;;;19.75;56.40
14882;BME280;7533;51.278;12.588;2022-09-29T07:46:59;98737.06;;;20.08;59.15
14882;BME280;7533;51.278;12.588;2022-09-29T07:52:01;98739.16;;;20.35;59.88
14882;BME280;7533;51.278;12.588;2022-09-29T07:57:06;98741.66;;;20.48;60.80
14882;BME280;7533;51.278;12.588;2022-09-29T08:02:09;98747.19;;;20.56;61.39
14882;BME280;7533;51.278;12.588;2022-09-29T08:07:12;98752.00;;;20.63;62.08
14882;BME280;7533;51.278;12.588;2022-09-29T08:12:16;98753.03;;;20.71;63.34
14882;BME280;7533;51.278;12.588;2022-09-29T08:17:19;98756.00;;;20.78;65.44
14882;BME280;7533;51.278;12.588;2022-09-29T08:22:22;98758.28;;;20.82;66.43
14882;BME280;7533;51.278;12.588;2022-09-29T08:27:26;98755.59;;;20.82;67.08
14882;BME280;7533;51.278;12.588;2022-09-29T08:32:29;98774.13;;;20.85;67.15
14882;BME280;7533;51.278;12.588;2022-09-29T08:37:32;98773.97;;;20.87;67.12
14882;BME280;7533;51.278;12.588;2022-09-29T08:42:49;98781.78;;;20.90;67.01
14882;BME280;7533;51.278;12.588;2022-09-29T08:48:02;98776.25;;;20.92;67.07
14882;BME280;7533;51.278;12.588;2022-09-29T08:53:20;98787.84;;;20.92;67.12
14882;BME280;7533;51.278;12.588;2022-09-29T08:58:32;98793.97;;;20.94;67.53
14882;BME280;7533;51.278;12.588;2022-09-29T09:03:58;98808.94;;;20.97;67.53
14882;BME280;7533;51.278;12.588;2022-09-29T09:09:15;98806.13;;;20.98;67.57
14882;BME280;7533;51.278;12.588;2022-09-29T09:14:35;98812.22;;;21.00;67.51
14882;BME280;7533;51.278;12.588;2022-09-29T09:20:13;98802.31;;;21.01;67.63
14882;BME280;7533;51.278;12.588;2022-09-29T09:25:32;98810.94;;;21.04;67.58
14882;BME280;7533;51.278;12.588;2022-09-29T09:30:41;98814.50;;;21.05;67.65
14882;BME280;7533;51.278;12.588;2022-09-29T09:35:58;98815.22;;;21.07;67.62
14882;BME280;7533;51.278;12.588;2022-09-29T09:41:03;98816.75;;;21.09;67.75
14882;BME280;7533;51.278;12.588;2022-09-29T09:46:13;98809.53;;;21.10;67.80
14882;BME280;7533;51.278;12.588;2022-09-29T09:51:29;98823.72;;;21.12;67.93
14882;BME280;7533;51.278;12.588;2022-09-29T09:56:58;98821.72;;;21.14;67.93
14882;BME280;7533;51.278;12.588;2022-09-29T10:02:03;98820.31;;;21.20;67.76
14882;BME280;7533;51.278;12.588;2022-09-29T10:07:06;98822.00;;;21.21;67.73
14882;BME280;7533;51.278;12.588;2022-09-29T10:12:12;98822.44;;;21.26;67.62
14882;BME280;7533;51.278;12.588;2022-09-29T10:17:20;98821.44;;;21.27;67.61
14882;BME280;7533;51.278;12.588;2022-09-29T10:22:26;98819.47;;;21.29;67.55
14882;BME280;7533;51.278;12.588;2022-09-29T10:27:28;98825.59;;;21.31;67.45
14882;BME280;7533;51.278;12.588;2022-09-29T10:32:33;98827.28;;;21.32;67.48
14882;BME280;7533;51.278;12.588;2022-09-29T10:37:42;98828.88;;;21.34;67.48
14882;BME280;7533;51.278;12.588;2022-09-29T10:42:48;98834.25;;;21.34;67.42
14882;BME280;7533;51.278;12.588;2022-09-29T10:48:10;98837.94;;;21.33;67.34
14882;BME280;7533;51.278;12.588;2022-09-29T10:53:20;98833.41;;;21.34;67.65
14882;BME280;7533;51.278;12.588;2022-09-29T10:58:27;98838.63;;;21.35;67.49
14882;BME280;7533;51.278;12.588;2022-09-29T11:03:49;98834.94;;;21.36;67.58
14882;BME280;7533;51.278;12.588;2022-09-29T11:08:55;98835.66;;;21.38;67.67
14882;BME280;7533;51.278;12.588;2022-09-29T11:13:59;98838.06;;;21.42;67.50
14882;BME280;7533;51.278;12.588;2022-09-29T11:19:06;98834.09;;;21.46;67.43
14882;BME280;7533;51.278;12.588;2022-09-29T11:24:14;98839.91;;;21.51;67.45
14882;BME280;7533;51.278;12.588;2022-09-29T11:29:29;98835.50;;;21.59;67.11
14882;BME280;7533;51.278;12.588;2022-09-29T11:34:54;98842.06;;;21.67;66.87
14882;BME280;7533;51.278;12.588;2022-09-29T11:40:10;98840.31;;;21.75;66.85
14882;BME280;7533;51.278;12.588;2022-09-29T11:45:14;98848.25;;;21.77;66.56
14882;BME280;7533;51.278;12.588;2022-09-29T11:50:37;98845.13;;;21.81;66.32
14882;BME280;7533;51.278;12.588;2022-09-29T11:55:55;98850.25;;;21.84;66.58
14882;BME280;7533;51.278;12.588;2022-09-29T12:01:15;98842.28;;;21.83;66.47
14882;BME280;7533;51.278;12.588;2022-09-29T12:06:54;98849.66;;;21.81;66.56
14882;BME280;7533;51.278;12.588;2022-09-29T12:12:06;98846.97;;;21.90;66.21
14882;BME280;7533;51.278;12.588;2022-09-29T12:17:27;98843.59;;;21.79;67.08
14882;BME280;7533;51.278;12.588;2022-09-29T12:22:33;98850.66;;;21.89;66.62
14882;BME280;7533;51.278;12.588;2022-09-29T12:27:41;98844.69;;;21.96;66.49
14882;BME280;7533;51.278;12.588;2022-09-29T12:32:49;98839.00;;;21.99;66.35
14882;BME280;7533;51.278;12.588;2022-09-29T12:38:00;98836.03;;;22.02;66.32
14882;BME280;7533;51.278;12.588;2022-09-29T12:43:09;98842.13;;;22.04;66.38
14882;BME280;7533;51.278;12.588;2022-09-29T12:48:24;98837.47;;;22.06;66.50
14882;BME280;7533;51.278;12.588;2022-09-29T12:53:34;98835.06;;;22.12;66.24
14882;BME280;7533;51.278;12.588;2022-09-29T12:58:43;98838.84;;;22.20;65.95
14882;BME280;7533;51.278;12.588;2022-09-29T13:04:12;98840.84;;;22.17;66.16
14882;BME280;7533;51.278;12.588;2022-09-29T13:09:36;98847.34;;;22.25;66.15
14882;BME280;7533;51.278;12.588;2022-09-29T13:14:56;98843.09;;;22.22;66.21
14882;BME280;7533;51.278;12.588;2022-09-29T13:20:29;98838.28;;;22.26;66.24
14882;BME280;7533;51.278;12.588;2022-09-29T13:25:42;98843.66;;;22.26;66.00
14882;BME280;7533;51.278;12.588;2022-09-29T13:30:49;98854.44;;;22.26;66.12
14882;BME280;7533;51.278;12.588;2022-09-29T13:35:54;98858.97;;;22.25;66.17
14882;BME280;7533;51.278;12.588;2022-09-29T13:41:32;98852.59;;;22.26;66.19
14882;BME280;7533;51.278;12.588;2022-09-29T13:46:38;98863.69;;;22.23;66.35
14882;BME280;7533;51.278;12.588;2022-09-29T13:51:47;98855.44;;;22.25;66.13
14882;BME280;7533;51.278;12.588;2022-09-29T13:56:59;98858.41;;;22.22;66.39
14882;BME280;7533;51.278;12.588;2022-09-29T14:02:17;98859.00;;;22.06;66.62
14882;BME280;7533;51.278;12.588;2022-09-29T14:07:41;98855.59;;;22.23;66.44
14882;BME280;7533;51.278;12.588;2022-09-29T14:12:53;98855.69;;;22.41;65.94
14882;BME280;7533;51.278;12.588;2022-09-29T14:18:02;98851.53;;;22.47;65.70
14882;BME280;7533;51.278;12.588;2022-09-29T14:23:07;98848.41;;;22.51;65.51
14882;BME280;7533;51.278;12.588;2022-09-29T14:28:15;98857.03;;;22.55;65.57
14882;BME280;7533;51.278;12.588;2022-09-29T14:33:23;98861.72;;;22.62;66.26
14882;BME280;7533;51.278;12.588;2022-09-29T14:38:29;98868.88;;;22.71;66.35
14882;BME280;7533;51.278;12.588;2022-09-29T14:43:38;98864.75;;;22.77;66.24
14882;BME280;7533;51.278;12.588;2022-09-29T14:48:53;98867.75;;;22.74;66.58
14882;BME280;7533;51.278;12.588;2022-09-29T14:54:22;98875.44;;;22.69;67.01
14882;BME280;7533;51.278;12.588;2022-09-29T14:59:38;98886.81;;;22.63;67.47
14882;BME280;7533;51.278;12.588;2022-09-29T15:04:48;98893.34;;;22.60;67.83
14882;BME280;7533;51.278;12.588;2022-09-29T15:09:53;98903.44;;;22.58;67.91
14882;BME280;7533;51.278;12.588;2022-09-29T15:14:58;98908.69;;;22.60;68.03
14882;BME280;7533;51.278;12.588;2022-09-29T15:20:11;98911.19;;;22.14;57.15
14882;BME280;7533;51.278;12.588;2022-09-29T15:25:20;98917.84;;;22.01;59.91
14882;BME280;7533;51.278;12.588;2022-09-29T15:30:31;98920.41;;;22.22;63.67
14882;BME280;7533;51.278;12.588;2022-09-29T15:35:39;98926.78;;;22.21;64.14
14882;BME280;7533;51.278;12.588;2022-09-29T15:40:51;98931.19;;;22.22;64.43
14882;BME280;7533;51.278;12.588;2022-09-29T15:45:57;98941.25;;;22.20;64.90
14882;BME280;7533;51.278;12.588;2022-09-29T15:51:00;98948.34;;;22.21;64.99
14882;BME280;7533;51.278;12.588;2022-09-29T15:56:04;98960.28;;;22.18;65.38
14882;BME280;7533;51.278;12.588;2022-09-29T16:01:11;98965.78;;;22.16;65.43
14882;BME280;7533;51.278;12.588;2022-09-29T16:06:21;98964.41;;;22.12;65.73
14882;BME280;7533;51.278;12.588;2022-09-29T16:11:26;98973.72;;;22.08;65.54
14882;BME280;7533;51.278;12.588;2022-09-29T16:16:35;98983.22;;;22.03;66.01
14882;BME280;7533;51.278;12.588;2022-09-29T16:21:38;98995.13;;;22.00;66.09
14882;BME280;7533;51.278;12.588;2022-09-29T16:26:44;99000.09;;;21.95;66.38
14882;BME280;7533;51.278;12.588;2022-09-29T16:31:50;99003.75;;;21.94;66.62
14882;BME280;7533;51.278;12.588;2022-09-29T16:36:54;99003.91;;;21.92;66.54
14882;BME280;7533;51.278;12.588;2022-09-29T16:41:59;99011.44;;;21.89;66.63
14882;BME280;7533;51.278;12.588;2022-09-29T16:47:14;99016.38;;;21.84;66.73
14882;BME280;7533;51.278;12.588;2022-09-29T16:52:20;99013.97;;;21.81;66.83
14882;BME280;7533;51.278;12.588;2022-09-29T16:57:27;99015.94;;;21.79;67.59
14882;BME280;7533;51.278;12.588;2022-09-29T17:02:32;99025.88;;;21.78;67.92
14882;BME280;7533;51.278;12.588;2022-09-29T17:07:38;99031.25;;;21.78;68.13
14882;BME280;7533;51.278;12.588;2022-09-29T17:12:42;99038.63;;;21.86;68.15
14882;BME280;7533;51.278;12.588;2022-09-29T17:17:47;99042.63;;;21.91;68.06
14882;BME280;7533;51.278;12.588;2022-09-29T17:22:51;99040.50;;;21.95;67.92
14882;BME280;7533;51.278;12.588;2022-09-29T17:27:54;99042.63;;;22.01;67.68
14882;BME280;7533;51.278;12.588;2022-09-29T17:33:18;99055.41;;;22.09;67.47
14882;BME280;7533;51.278;12.588;2022-09-29T17:38:21;99065.66;;;22.15;67.21
14882;BME280;7533;51.278;12.588;2022-09-29T17:43:24;99064.22;;;22.21;67.05
14882;BME280;7533;51.278;12.588;2022-09-29T17:48:29;99072.59;;;22.27;66.75
14882;BME280;7533;51.278;12.588;2022-09-29T17:53:33;99065.94;;;22.31;66.63
14882;BME280;7533;51.278;12.588;2022-09-29T17:58:35;99066.38;;;22.36;66.58
14882;BME280;7533;51.278;12.588;2022-09-29T18:03:39;99073.19;;;22.40;66.39
14882;BME280;7533;51.278;12.588;2022-09-29T18:08:42;99062.94;;;22.44;66.42
14882;BME280;7533;51.278;12.588;2022-09-29T18:13:45;99066.22;;;22.48;66.44
14882;BME280;7533;51.278;12.588;2022-09-29T18:18:49;99066.66;;;22.53;66.26
14882;BME280;7533;51.278;12.588;2022-09-29T18:23:58;99072.75;;;22.55;66.18
14882;BME280;7533;51.278;12.588;2022-09-29T18:29:10;99079.72;;;22.57;65.95
14882;BME280;7533;51.278;12.588;2022-09-29T18:34:18;99073.91;;;22.62;66.09
14882;BME280;7533;51.278;12.588;2022-09-29T18:39:22;99079.13;;;22.63;65.90
14882;BME280;7533;51.278;12.588;2022-09-29T18:44:25;99080.69;;;22.66;65.78
14882;BME280;7533;51.278;12.588;2022-09-29T18:49:31;99086.66;;;22.69;65.85
14882;BME280;7533;51.278;12.588;2022-09-29T18:54:33;99090.06;;;22.71;65.78
14882;BME280;7533;51.278;12.588;2022-09-29T18:59:36;99083.38;;;22.76;65.66
14882;BME280;7533;51.278;12.588;2022-09-29T19:04:41;99085.81;;;22.79;65.62
14882;BME280;7533;51.278;12.588;2022-09-29T19:09:44;99094.28;;;22.84;65.28
14882;BME280;7533;51.278;12.588;2022-09-29T19:14:46;99108.50;;;22.86;65.31
14882;BME280;7533;51.278;12.588;2022-09-29T19:19:50;99120.75;;;22.90;65.22
14882;BME280;7533;51.278;12.588;2022-09-29T19:24:53;99118.75;;;22.92;65.23
14882;BME280;7533;51.278;12.588;2022-09-29T19:29:56;99118.44;;;22.95;65.14
14882;BME280;7533;51.278;12.588;2022-09-29T19:35:07;99127.28;;;22.97;64.98
14882;BME280;7533;51.278;12.588;2022-09-29T19:40:14;99133.22;;;23.01;64.95
14882;BME280;7533;51.278;12.588;2022-09-29T19:45:18;99143.56;;;23.05;64.76
14882;BME280;7533;51.278;12.588;2022-09-29T19:50:24;99148.84;;;23.07;64.74
14882;BME280;7533;51.278;12.588;2022-09-29T19:55:44;99163.03;;;23.09;64.70
14882;BME280;7533;51.278;12.588;2022-09-29T20:00:47;99164.31;;;23.14;64.59
14882;BME280;7533;51.278;12.588;2022-09-29T20:05:57;99165.31;;;23.13;64.56
14882;BME280;7533;51.278;12.588;2022-09-29T20:11:05;99178.38;;;23.18;64.49
14882;BME280;7533;51.278;12.588;2022-09-29T20:16:08;99176.53;;;23.18;64.62
14882;BME280;7533;51.278;12.588;2022-09-29T20:21:12;99183.31;;;23.22;64.63
14882;BME280;7533;51.278;12.588;2022-09-29T20:26:15;99186.88;;;23.23;64.30
14882;BME280;7533;51.278;12.588;2022-09-29T20:31:18;99185.75;;;23.26;64.33
14882;BME280;7533;51.278;12.588;2022-09-29T20:36:22;99191.84;;;23.28;64.37
14882;BME280;7533;51.278;12.588;2022-09-29T20:41:25;99195.97;;;23.32;64.32
14882;BME280;7533;51.278;12.588;2022-09-29T20:46:30;99197.50;;;23.34;64.33
14882;BME280;7533;51.278;12.588;2022-09-29T20:51:34;99197.38;;;23.36;64.19
14882;BME280;7533;51.278;12.588;2022-09-29T20:56:39;99207.88;;;23.39;64.13
14882;BME280;7533;51.278;12.588;2022-09-29T21:01:43;99206.34;;;23.36;64.11
14882;BME280;7533;51.278;12.588;2022-09-29T21:06:48;99205.91;;;23.41;63.95
14882;BME280;7533;51.278;12.588;2022-09-29T21:11:53;99205.19;;;23.39;64.23
14882;BME280;7533;51.278;12.588;2022-09-29T21:16:55;99212.00;;;23.43;64.35
14882;BME280;7533;51.278;12.588;2022-09-29T21:21:59;99221.53;;;23.47;64.18
14882;BME280;7533;51.278;12.588;2022-09-29T21:27:02;99224.94;;;23.49;64.19
14882;BME280;7533;51.278;12.588;2022-09-29T21:32:05;99221.22;;;23.50;64.15
14882;BME280;7533;51.278;12.588;2022-09-29T21:37:09;99227.34;;;23.52;64.32
14882;BME280;7533;51.278;12.588;2022-09-29T21:42:12;99231.75;;;23.53;64.17
14882;BME280;7533;51.278;12.588;2022-09-29T21:47:14;99235.16;;;23.55;64.16
14882;BME280;7533;51.278;12.588;2022-09-29T21:52:18;99234.13;;;23.56;64.16
14882;BME280;7533;51.278;12.588;2022-09-29T21:57:21;99228.63;;;23.58;64.26
14882;BME280;7533;51.278;12.588;2022-09-29T22:02:24;99224.91;;;23.59;64.09
14882;BME280;7533;51.278;12.588;2022-09-29T22:07:29;99246.38;;;23.60;64.26
14882;BME280;7533;51.278;12.588;2022-09-29T22:12:31;99242.81;;;23.60;64.21
14882;BME280;7533;51.278;12.588;2022-09-29T22:17:34;99248.06;;;23.61;64.30
14882;BME280;7533;51.278;12.588;2022-09-29T22:22:38;99244.38;;;23.62;64.22
14882;BME280;7533;51.278;12.588;2022-09-29T22:27:42;99248.81;;;23.63;64.25
14882;BME280;7533;51.278;12.588;2022-09-29T22:32:44;99257.63;;;23.65;64.10
14882;BME280;7533;51.278;12.588;2022-09-29T22:37:48;99249.78;;;23.62;64.34
14882;BME280;7533;51.278;12.588;2022-09-29T22:42:51;99253.91;;;23.66;64.16
14882;BME280;7533;51.278;12.588;2022-09-29T22:47:55;99265.56;;;23.67;63.96
14882;BME280;7533;51.278;12.588;2022-09-29T22:53:00;99265.56;;;23.67;63.78
14882;BME280;7533;51.278;12.588;2022-09-29T22:58:02;99271.81;;;23.67;63.84
14882;BME280;7533;51.278;12.588;2022-09-29T23:03:06;99281.66;;;23.68;63.74
14882;BME280;7533;51.278;12.588;2022-09-29T23:08:10;99276.38;;;23.67;63.83
14882;BME280;7533;51.278;12.588;2022-09-29T23:13:13;99285.34;;;23.67;63.88
14882;BME280;7533;51.278;12.588;2022-09-29T23:18:15;99281.50;;;23.70;63.91
14882;BME280;7533;51.278;12.588;2022-09-29T23:23:19;99288.47;;;23.72;63.88
14882;BME280;7533;51.278;12.588;2022-09-29T23:28:22;99283.91;;;23.73;63.93
14882;BME280;7533;51.278;12.588;2022-09-29T23:33:25;99284.75;;;23.73;64.04
14882;BME280;7533;51.278;12.588;2022-09-29T23:38:29;99276.66;;;23.73;64.13
14882;BME280;7533;51.278;12.588;2022-09-29T23:43:49;99278.50;;;23.73;64.07
14882;BME280;7533;51.278;12.588;2022-09-29T23:48:52;99290.88;;;23.75;63.93
14882;BME280;7533;51.278;12.588;2022-09-29T23:53:58;99292.00;;;23.73;64.31
14882;BME280;7533;51.278;12.588;2022-09-29T23:59:01;99295.28;;;23.77;64.34
